createdAt,value
2023-05-20T00:04:57.533Z,100
2023-05-20T00:09:55.844Z,100
2023-05-20T00:14:55.844Z,100
2023-05-20T00:19:52.348Z,100
2023-05-20T00:24:50.293Z,100
2023-05-20T00:29:48.624Z,100
2023-05-20T00:34:46.677Z,100
2023-05-20T00:39:44.983Z,100
2023-05-20T00:44:43.025Z,100
2023-05-20T00:49:41.665Z,100
2023-05-20T00:54:39.930Z,100
2023-05-20T00:59:37.977Z,100
2023-05-20T01:04:35.946Z,100
2023-05-20T01:09:34.429Z,100
2023-05-20T01:14:32.832Z,100
2023-05-20T01:19:30.838Z,100
2023-05-20T01:24:28.871Z,100
2023-05-20T01:29:26.566Z,100
2023-05-20T01:34:24.607Z,100
2023-05-20T01:39:22.944Z,100
2023-05-20T01:44:21.036Z,100
2023-05-20T01:49:19.151Z,100
2023-05-20T01:54:17.183Z,100
2023-05-20T01:59:15.286Z,100
2023-05-20T02:04:13.312Z,100
2023-05-20T02:09:11.454Z,100
2023-05-20T02:14:09.497Z,100
2023-05-20T02:19:07.364Z,100
2023-05-20T02:24:05.224Z,100
2023-05-20T02:29:03.151Z,100
2023-05-20T02:34:01.344Z,100
2023-05-20T02:38:59.950Z,100
2023-05-20T02:43:57.914Z,100
2023-05-20T02:48:56.087Z,100
2023-05-20T02:53:54.370Z,100
2023-05-20T02:58:52.430Z,100
2023-05-20T03:03:54.365Z,100
2023-05-20T03:08:51.885Z,100
2023-05-20T03:13:50.033Z,100
2023-05-20T03:18:48.356Z,100
2023-05-20T03:23:46.489Z,100
2023-05-20T03:28:45.052Z,100
2023-05-20T03:33:43.952Z,100
2023-05-20T03:38:43.126Z,100
2023-05-20T03:43:42.728Z,100
2023-05-20T03:48:42.634Z,100
2023-05-20T03:53:42.234Z,100
2023-05-20T03:58:41.856Z,100
2023-05-20T04:03:41.399Z,100
2023-05-20T04:08:40.362Z,100
2023-05-20T04:13:39.467Z,95.6
2023-05-20T04:18:38.356Z,86.6
2023-05-20T04:23:37.556Z,75.2
2023-05-20T04:28:36.860Z,68
2023-05-20T04:33:35.911Z,63.4
2023-05-20T04:38:34.353Z,59.6
2023-05-20T04:43:32.894Z,58.6
2023-05-20T04:48:32.866Z,57.9
2023-05-20T04:53:31.932Z,55.6
2023-05-20T04:58:31.093Z,49.6
2023-05-20T05:03:29.972Z,47.9
2023-05-20T05:08:28.992Z,45.8
2023-05-20T05:13:27.781Z,42.7
2023-05-20T05:18:26.651Z,43.1
2023-05-20T05:23:25.713Z,41.6
2023-05-20T05:28:24.114Z,39.6
2023-05-20T05:33:23.002Z,38.3
2023-05-20T05:38:21.548Z,38.1
2023-05-20T05:43:20.022Z,37.5
2023-05-20T05:48:18.824Z,37
2023-05-20T05:53:17.194Z,35.9
2023-05-20T05:58:15.748Z,35.1
2023-05-20T06:03:14.353Z,34.9
2023-05-20T06:08:12.299Z,33.2
2023-05-20T06:13:11.035Z,33.4
2023-05-20T06:18:11.451Z,33.3
2023-05-20T06:23:10.098Z,34.3
2023-05-20T06:28:08.197Z,32.9
2023-05-20T06:33:06.051Z,32.2
2023-05-20T06:38:04.144Z,32.3
2023-05-20T06:43:02.533Z,32.4
2023-05-20T06:48:00.795Z,32.9
2023-05-20T06:52:59.261Z,30.3
2023-05-20T06:57:58.495Z,31
2023-05-20T07:02:57.016Z,32.4
2023-05-20T07:07:55.249Z,30.5
2023-05-20T07:12:54.075Z,29.9
2023-05-20T07:17:52.631Z,31.2
2023-05-20T07:22:51.269Z,30.7
2023-05-20T07:27:49.975Z,28.4
2023-05-20T07:32:51.599Z,30.4
2023-05-20T07:37:49.580Z,29.1
2023-05-20T07:42:48.443Z,29.4
2023-05-20T07:47:46.776Z,29
2023-05-20T07:52:55.769Z,27.7
2023-05-20T07:57:44.832Z,26.2
2023-05-20T08:02:42.228Z,26.9
2023-05-20T08:07:39.905Z,26.2
2023-05-20T08:12:37.448Z,25.9
2023-05-20T08:17:36.210Z,26.3
2023-05-20T08:22:35.031Z,25.2
2023-05-20T08:27:33.288Z,27.2
2023-05-20T08:32:31.994Z,25.1
2023-05-20T08:37:30.823Z,23.7
2023-05-20T08:42:28.633Z,22.8
2023-05-20T08:47:26.109Z,23.8
2023-05-20T08:52:23.659Z,22.2
2023-05-20T08:57:21.888Z,22.6
2023-05-20T09:02:19.726Z,20.4
2023-05-20T09:07:18.669Z,23
2023-05-20T09:12:15.963Z,24.1
2023-05-20T09:17:15.422Z,21.9
2023-05-20T09:22:13.856Z,22
2023-05-20T09:27:05.114Z,23.1
2023-05-20T09:32:06.956Z,21.4
2023-05-20T09:37:05.350Z,22
2023-05-20T09:42:04.215Z,22.1
2023-05-20T09:46:58.301Z,25.5
2023-05-20T09:51:47.316Z,34.1
2023-05-20T09:56:46.062Z,31.3
2023-05-20T10:01:40.274Z,32.1
2023-05-20T10:06:36.226Z,32.7
2023-05-20T10:11:46.075Z,21.5
2023-05-20T10:16:48.389Z,20.8
2023-05-20T10:21:42.153Z,28.9
2023-05-20T10:26:34.735Z,35.2
2023-05-20T10:31:32.840Z,26.1
2023-05-20T10:36:38.422Z,22.8
2023-05-20T10:41:35.463Z,28.8
2023-05-20T10:46:35.319Z,36.6
2023-05-20T10:51:23.847Z,39.5
2023-05-20T10:56:22.003Z,44.3
2023-05-20T11:01:18.168Z,45.8
2023-05-20T11:06:17.555Z,48.8
2023-05-20T11:11:13.473Z,50.6
2023-05-20T11:16:10.700Z,52.3
2023-05-20T11:21:07.506Z,57.4
2023-05-20T11:26:06.010Z,54
2023-05-20T11:31:13.975Z,24.5
2023-05-20T11:36:26.686Z,32
2023-05-20T11:41:09.504Z,27.9
2023-05-20T11:46:14.039Z,24.3
2023-05-20T11:51:11.731Z,25.1
2023-05-20T11:56:09.664Z,25.7
2023-05-20T12:01:20.759Z,25.9
2023-05-20T12:06:06.697Z,25.6
2023-05-20T12:11:04.139Z,26.5
2023-05-20T12:15:59.826Z,26.8
2023-05-20T12:20:57.441Z,26.4
2023-05-20T12:25:56.186Z,25
2023-05-20T12:30:53.874Z,26
2023-05-20T12:35:50.587Z,26.3
2023-05-20T12:40:48.068Z,27.9
2023-05-20T12:45:46.389Z,28.2
2023-05-20T12:50:43.414Z,29.2
2023-05-20T12:55:41.128Z,29.8
2023-05-20T13:00:39.621Z,29.4
2023-05-20T13:05:37.572Z,30.4
2023-05-20T13:10:35.861Z,31.1
2023-05-20T13:15:33.957Z,30.7
2023-05-20T13:20:30.919Z,31
2023-05-20T13:25:30.782Z,28
2023-05-20T13:30:28.026Z,32
2023-05-20T13:35:25.353Z,33.8
2023-05-20T13:40:20.129Z,38
2023-05-20T13:45:16.005Z,40.3
2023-05-20T13:50:15.059Z,42
2023-05-20T13:55:13.169Z,40
2023-05-20T14:00:09.699Z,51.6
2023-05-20T14:05:03.923Z,59.3
2023-05-20T14:10:03.728Z,52.7
2023-05-20T14:15:03.109Z,47
2023-05-20T14:20:03.061Z,45.4
2023-05-20T14:25:00.422Z,48.2
2023-05-20T14:29:58.127Z,52.4
2023-05-20T14:34:57.494Z,45
2023-05-20T14:39:57.100Z,45.2
2023-05-20T14:44:53.681Z,50.4
2023-05-20T14:49:50.363Z,56.3
2023-05-20T14:54:47.089Z,63.3
2023-05-20T14:59:44.017Z,67
2023-05-20T15:04:41.781Z,65.6
2023-05-20T15:09:39.776Z,69.3
2023-05-20T15:14:37.063Z,76
2023-05-20T15:19:34.975Z,80.8
2023-05-20T15:24:32.993Z,80.6
2023-05-20T15:29:31.122Z,81.6
2023-05-20T15:34:29.401Z,78.2
2023-05-20T15:39:27.778Z,76.6
2023-05-20T15:44:25.545Z,75.3
2023-05-20T15:49:23.732Z,71.6
2023-05-20T15:54:22.069Z,70.8
2023-05-20T15:59:20.324Z,72.2
2023-05-20T16:04:18.016Z,70.3
2023-05-20T16:09:15.681Z,71
2023-05-20T16:14:13.908Z,66.8
2023-05-20T16:19:12.177Z,68.8
2023-05-20T16:24:09.877Z,71.4
2023-05-20T16:29:08.001Z,72.9
2023-05-20T16:34:09.410Z,76.3
2023-05-20T16:39:06.305Z,75.1
2023-05-20T16:44:04.012Z,75.5
2023-05-20T16:49:02.010Z,74.7
2023-05-20T16:53:59.855Z,76.7
2023-05-20T16:58:57.729Z,77.6
2023-05-20T17:03:55.597Z,78.7
2023-05-20T17:08:53.257Z,81.6
2023-05-20T17:13:51.114Z,80.3
2023-05-20T17:18:49.291Z,81.6
2023-05-20T17:23:47.396Z,84.5
2023-05-20T17:28:45.333Z,85.4
2023-05-20T17:33:43.398Z,88.8
2023-05-20T17:38:41.821Z,91.3
2023-05-20T17:43:41.448Z,96.3
2023-05-20T17:48:39.088Z,100
2023-05-20T17:53:37.182Z,100
2023-05-20T17:58:35.242Z,100
2023-05-20T18:03:33.612Z,99.7
2023-05-20T18:08:31.764Z,95.7
2023-05-20T18:13:29.899Z,95.1
2023-05-20T18:18:29.371Z,97.1
2023-05-20T18:23:27.285Z,100
2023-05-20T18:28:25.311Z,99.4
2023-05-20T18:33:23.334Z,100
2023-05-20T18:38:20.970Z,100
2023-05-20T18:43:18.797Z,100
2023-05-20T18:48:23.286Z,100
2023-05-20T18:53:14.678Z,100
2023-05-20T18:58:12.608Z,100
2023-05-20T19:03:10.737Z,100
2023-05-20T19:08:08.871Z,100
2023-05-20T19:13:06.898Z,100
2023-05-20T19:18:05.141Z,100
2023-05-20T19:23:03.514Z,100
2023-05-20T19:28:01.730Z,100
2023-05-20T19:33:00.179Z,100
2023-05-20T19:37:58.359Z,100
2023-05-20T19:42:56.756Z,100
2023-05-20T19:47:54.836Z,100
2023-05-20T19:52:52.787Z,100
2023-05-20T19:57:50.884Z,100
2023-05-20T20:02:49.014Z,100
2023-05-20T20:07:47.008Z,100
2023-05-20T20:12:45.397Z,100
2023-05-20T20:17:43.581Z,100
2023-05-20T20:22:41.679Z,100
2023-05-20T20:27:39.788Z,100
2023-05-20T20:32:38.029Z,100
2023-05-20T20:37:35.976Z,100
2023-05-20T20:42:33.822Z,100
2023-05-20T20:47:31.785Z,100
2023-05-20T20:52:29.700Z,100
2023-05-20T20:57:27.713Z,100
2023-05-20T21:02:25.868Z,100
2023-05-20T21:07:23.792Z,100
2023-05-20T21:12:21.881Z,100
2023-05-20T21:17:20.114Z,100
2023-05-20T21:22:17.967Z,100
2023-05-20T21:27:15.887Z,100
2023-05-20T21:32:14.230Z,100
2023-05-20T21:37:12.186Z,100
2023-05-20T21:42:10.276Z,100
2023-05-20T21:47:08.376Z,100
2023-05-20T21:52:06.149Z,100
2023-05-20T21:57:03.974Z,100
2023-05-20T22:02:01.756Z,100
2023-05-20T22:06:59.471Z,100
2023-05-20T22:11:57.272Z,100
2023-05-20T22:16:55.128Z,100
2023-05-20T22:21:53.098Z,100
2023-05-20T22:26:50.859Z,100
2023-05-20T22:31:48.536Z,100
2023-05-20T22:36:46.209Z,100
2023-05-20T22:41:43.989Z,100
2023-05-20T22:46:41.799Z,100
2023-05-20T22:51:39.798Z,100
2023-05-20T22:56:38.040Z,100
2023-05-20T23:01:35.929Z,100
2023-05-20T23:06:34.122Z,100
2023-05-20T23:11:32.078Z,100
2023-05-20T23:16:30.059Z,100
2023-05-20T23:21:28.233Z,100
2023-05-20T23:26:26.422Z,100
2023-05-20T23:31:24.653Z,100
2023-05-20T23:36:23.159Z,100
2023-05-20T23:41:21.238Z,100
2023-05-20T23:46:19.489Z,100
2023-05-20T23:51:17.754Z,100
2023-05-20T23:56:16.044Z,100
